Time;durP1;ratioP1;P1;durP2;ratioP2;P2;SDS_P1;SDS_P2;PMS_P1;PMS_P2;Temp;Humidity;BMP_temperature;BMP_pressure;BME280_temperature;BME280_humidity;BME280_pressure;Samples;Min_cycle;Max_cycle;Signal;HPM_P1;HPM_P2
2021/07/07 00:01:33;;;;;;;2.60;1.52;;;;;;;;;;5112725;28;20298;-67
2021/07/07 00:04:01;;;;;;;5.10;1.50;;;;;;;;;;5113095;28;20203;-67
2021/07/07 00:06:29;;;;;;;3.75;1.50;;;;;;;;;;5112716;28;20248;-67
2021/07/07 00:08:59;;;;;;;2.35;1.50;;;;;;;;;;5113147;28;20226;-68
2021/07/07 00:11:27;;;;;;;3.38;1.50;;;;;;;;;;5112949;28;20206;-68
2021/07/07 00:13:55;;;;;;;5.63;1.70;;;;;;;;;;5112716;28;20199;-67
2021/07/07 00:16:23;;;;;;;2.10;1.90;;;;;;;;;;5112700;28;20199;-67
2021/07/07 00:18:53;;;;;;;2.25;1.77;;;;;;;;;;5112913;28;20216;-67
2021/07/07 00:21:21;;;;;;;7.90;2.22;;;;;;;;;;5112940;28;20199;-68
2021/07/07 00:23:50;;;;;;;4.05;1.98;;;;;;;;;;5112683;28;20298;-67
2021/07/07 00:26:19;;;;;;;2.33;1.63;;;;;;;;;;5112912;28;20294;-67
2021/07/07 00:28:47;;;;;;;1.88;1.67;;;;;;;;;;5112578;28;20640;-67
2021/07/07 00:31:15;;;;;;;4.13;1.77;;;;;;;;;;5112470;28;20199;-67
2021/07/07 00:33:44;;;;;;;5.28;1.75;;;;;;;;;;5112828;28;20585;-68
2021/07/07 00:36:12;;;;;;;4.05;1.80;;;;;;;;;;5113057;28;20196;-67
2021/07/07 00:38:40;;;;;;;7.15;1.95;;;;;;;;;;5113062;28;20226;-67
2021/07/07 00:41:08;;;;;;;4.75;1.85;;;;;;;;;;5112844;28;20199;-68
2021/07/07 00:43:38;;;;;;;3.75;2.00;;;;;;;;;;5112742;28;20199;-67
2021/07/07 00:46:06;;;;;;;3.95;2.08;;;;;;;;;;5112334;28;20200;-67
2021/07/07 00:48:34;;;;;;;4.75;2.30;;;;;;;;;;5116017;28;20203;-67
2021/07/07 00:51:03;;;;;;;3.35;2.05;;;;;;;;;;5132679;27;20230;-67
2021/07/07 00:53:31;;;;;;;4.40;2.20;;;;;;;;;;5137318;27;20205;-68
2021/07/07 00:56:00;;;;;;;5.00;1.95;;;;;;;;;;5137001;27;20301;-67
2021/07/07 00:58:29;;;;;;;5.88;2.30;;;;;;;;;;5137267;27;20618;-67
2021/07/07 01:00:58;;;;;;;7.40;2.22;;;;;;;;;;5136646;27;20221;-67
2021/07/07 01:03:26;;;;;;;4.68;2.17;;;;;;;;;;5136995;27;20203;-68
2021/07/07 01:05:54;;;;;;;6.57;2.42;;;;;;;;;;5137104;27;20298;-66
2021/07/07 01:08:23;;;;;;;4.85;2.60;;;;;;;;;;5136872;27;20199;-67
2021/07/07 01:10:51;;;;;;;6.78;2.40;;;;;;;;;;5136505;27;20298;-67
2021/07/07 01:13:19;;;;;;;7.82;2.40;;;;;;;;;;5136933;27;20203;-69
2021/07/07 01:15:48;;;;;;;2.20;2.00;;;;;;;;;;5136458;27;20195;-68
2021/07/07 01:18:18;;;;;;;3.67;2.28;;;;;;;;;;5136828;27;20218;-68
2021/07/07 01:20:46;;;;;;;5.18;2.42;;;;;;;;;;5136367;27;20214;-68
2021/07/07 01:23:16;;;;;;;6.00;2.53;;;;;;;;;;5137070;27;20199;-68
2021/07/07 01:25:45;;;;;;;5.78;2.38;;;;;;;;;;5136891;27;20195;-67
2021/07/07 01:28:13;;;;;;;6.32;2.50;;;;;;;;;;5136746;27;20205;-68
2021/07/07 01:30:41;;;;;;;7.00;2.92;;;;;;;;;;5135860;27;20190;-67
2021/07/07 01:33:09;;;;;;;11.05;2.95;;;;;;;;;;5136261;27;20678;-68
2021/07/07 01:35:38;;;;;;;3.67;2.72;;;;;;;;;;5136556;27;20221;-68
2021/07/07 01:38:06;;;;;;;4.07;2.95;;;;;;;;;;5136328;27;20194;-68
2021/07/07 01:40:35;;;;;;;5.35;2.75;;;;;;;;;;5136011;27;20841;-67
2021/07/07 01:43:04;;;;;;;4.90;2.60;;;;;;;;;;5136347;27;20289;-69
2021/07/07 01:45:32;;;;;;;6.72;2.72;;;;;;;;;;5136210;27;20293;-68
2021/07/07 01:48:00;;;;;;;3.65;2.13;;;;;;;;;;5136444;27;20205;-68
2021/07/07 01:50:29;;;;;;;4.82;2.50;;;;;;;;;;5136056;27;20227;-68
2021/07/07 01:52:58;;;;;;;6.25;2.75;;;;;;;;;;5136181;27;20286;-67
2021/07/07 01:55:26;;;;;;;4.72;2.70;;;;;;;;;;5135962;27;20205;-67
2021/07/07 01:57:56;;;;;;;3.90;2.33;;;;;;;;;;5136158;27;20201;-66
2021/07/07 02:00:25;;;;;;;7.57;2.50;;;;;;;;;;5135059;27;20214;-67
2021/07/07 02:02:54;;;;;;;6.18;2.60;;;;;;;;;;5135967;27;20198;-67
2021/07/07 02:05:24;;;;;;;4.93;2.53;;;;;;;;;;5135657;27;20678;-66
2021/07/07 02:07:52;;;;;;;4.10;2.70;;;;;;;;;;5135526;27;20556;-68
2021/07/07 02:10:21;;;;;;;2.88;2.42;;;;;;;;;;5135657;27;20300;-68
2021/07/07 02:12:50;;;;;;;5.20;2.35;;;;;;;;;;5135588;27;20297;-67
2021/07/07 02:15:21;;;;;;;3.78;2.60;;;;;;;;;;5135426;27;20206;-68
2021/07/07 02:17:50;;;;;;;7.68;2.95;;;;;;;;;;5135764;27;20278;-67
2021/07/07 02:20:19;;;;;;;3.50;3.20;;;;;;;;;;5135356;27;20781;-68
2021/07/07 02:22:48;;;;;;;4.80;3.30;;;;;;;;;;5135662;27;20289;-68
2021/07/07 02:25:17;;;;;;;4.85;3.20;;;;;;;;;;5135682;27;20233;-68
2021/07/07 02:27:46;;;;;;;4.25;3.13;;;;;;;;;;5135137;27;20677;-67
2021/07/07 02:30:17;;;;;;;5.47;3.03;;;;;;;;;;5135399;27;20199;-70
2021/07/07 02:32:46;;;;;;;3.97;2.90;;;;;;;;;;5135446;27;20255;-68
2021/07/07 02:35:17;;;;;;;3.13;2.75;;;;;;;;;;5135407;27;20209;-67
2021/07/07 02:37:47;;;;;;;4.63;2.75;;;;;;;;;;5135452;27;20183;-68
2021/07/07 02:40:16;;;;;;;3.38;2.80;;;;;;;;;;5135294;27;20203;-69
2021/07/07 02:42:44;;;;;;;5.65;3.10;;;;;;;;;;5134652;27;20745;-68
2021/07/07 02:45:14;;;;;;;6.05;3.08;;;;;;;;;;5114443;28;20286;-68
2021/07/07 02:47:43;;;;;;;3.45;2.80;;;;;;;;;;5114495;28;20199;-66
2021/07/07 02:50:14;;;;;;;6.68;2.70;;;;;;;;;;5114260;28;20223;-68
2021/07/07 02:52:43;;;;;;;4.38;2.83;;;;;;;;;;5114609;28;20183;-68
2021/07/07 02:55:12;;;;;;;4.93;3.03;;;;;;;;;;5114568;28;20200;-67
2021/07/07 02:57:59;;;;;;;10.07;3.70;;;;;;;;;;5114207;28;20205;-67
2021/07/07 03:00:29;;;;;;;5.10;3.17;;;;;;;;;;5113882;28;20298;-69
2021/07/07 03:02:59;;;;;;;3.28;2.70;;;;;;;;;;5114295;28;20275;-68
2021/07/07 03:05:29;;;;;;;4.40;2.80;;;;;;;;;;5111637;28;20709;-67
2021/07/07 03:07:58;;;;;;;3.47;2.85;;;;;;;;;;5093302;28;20350;-67
2021/07/07 03:10:26;;;;;;;7.43;2.85;;;;;;;;;;5092720;28;20678;-67
2021/07/07 03:12:54;;;;;;;6.30;3.03;;;;;;;;;;5093286;28;20291;-67
2021/07/07 03:15:23;;;;;;;4.15;3.10;;;;;;;;;;5093215;28;20294;-67
2021/07/07 03:17:51;;;;;;;4.40;2.85;;;;;;;;;;5093312;28;20894;-68
2021/07/07 03:20:19;;;;;;;5.15;2.83;;;;;;;;;;5093159;28;20255;-68
2021/07/07 03:22:50;;;;;;;5.38;2.90;;;;;;;;;;5093433;28;20235;-68
2021/07/07 03:25:18;;;;;;;6.45;2.88;;;;;;;;;;5093355;28;20200;-67
2021/07/07 03:27:46;;;;;;;3.45;3.08;;;;;;;;;;5093222;28;20223;-68
2021/07/07 03:30:15;;;;;;;3.88;2.80;;;;;;;;;;5093179;28;20200;-68
2021/07/07 03:32:43;;;;;;;3.13;2.92;;;;;;;;;;5092959;28;20232;-68
2021/07/07 03:35:12;;;;;;;6.18;3.38;;;;;;;;;;5092942;28;20295;-68
2021/07/07 03:37:40;;;;;;;3.67;2.60;;;;;;;;;;5092778;28;20590;-68
2021/07/07 03:40:10;;;;;;;6.05;3.00;;;;;;;;;;5093055;28;20262;-68
2021/07/07 03:42:39;;;;;;;3.40;3.03;;;;;;;;;;5093058;28;20548;-68
2021/07/07 03:45:08;;;;;;;5.63;3.20;;;;;;;;;;5112004;28;20635;-68
2021/07/07 03:47:36;;;;;;;7.13;3.05;;;;;;;;;;5113175;28;20206;-68
2021/07/07 03:50:05;;;;;;;4.20;2.90;;;;;;;;;;5121888;27;20341;-68
2021/07/07 03:52:33;;;;;;;7.78;2.90;;;;;;;;;;5133845;27;20194;-68
2021/07/07 03:55:01;;;;;;;4.15;3.15;;;;;;;;;;5134016;27;20199;-68
2021/07/07 03:57:31;;;;;;;6.10;2.95;;;;;;;;;;5133677;27;20198;-68
2021/07/07 03:59:59;;;;;;;5.40;2.55;;;;;;;;;;5133339;27;20230;-68
2021/07/07 04:02:27;;;;;;;3.75;2.90;;;;;;;;;;5133810;27;20214;-67
2021/07/07 04:04:55;;;;;;;8.05;3.15;;;;;;;;;;5133494;27;20288;-68
2021/07/07 04:07:23;;;;;;;6.15;3.40;;;;;;;;;;5133764;27;20628;-68
2021/07/07 04:09:52;;;;;;;4.60;3.10;;;;;;;;;;5133636;27;20217;-67
2021/07/07 04:12:20;;;;;;;5.78;3.95;;;;;;;;;;5133614;28;20194;-68
2021/07/07 04:14:50;;;;;;;5.05;3.22;;;;;;;;;;5133515;28;20199;-68
2021/07/07 04:17:18;;;;;;;4.25;3.13;;;;;;;;;;5133407;28;20194;-68
2021/07/07 04:19:46;;;;;;;3.13;2.78;;;;;;;;;;5133108;28;20198;-67
2021/07/07 04:22:14;;;;;;;4.60;2.90;;;;;;;;;;5134549;27;20309;-68
2021/07/07 04:24:43;;;;;;;5.18;2.97;;;;;;;;;;5137699;27;20198;-68
2021/07/07 04:27:11;;;;;;;3.75;3.00;;;;;;;;;;5137603;27;20297;-67
2021/07/07 04:29:39;;;;;;;2.80;2.40;;;;;;;;;;5137699;27;20592;-68
2021/07/07 04:32:09;;;;;;;2.80;2.20;;;;;;;;;;5137675;27;20537;-67
2021/07/07 04:34:37;;;;;;;4.28;2.25;;;;;;;;;;5137042;27;20928;-69
2021/07/07 04:37:06;;;;;;;5.60;2.35;;;;;;;;;;5137542;27;20201;-67
2021/07/07 04:39:34;;;;;;;5.13;2.42;;;;;;;;;;5137169;27;20745;-68
2021/07/07 04:42:02;;;;;;;4.40;2.40;;;;;;;;;;5137277;27;20215;-69
2021/07/07 04:44:30;;;;;;;3.03;2.08;;;;;;;;;;5137057;27;20201;-69
2021/07/07 04:46:59;;;;;;;3.70;2.13;;;;;;;;;;5136863;27;20202;-68
2021/07/07 04:49:29;;;;;;;4.60;1.95;;;;;;;;;;5136292;27;21019;-68
2021/07/07 04:51:57;;;;;;;3.97;2.22;;;;;;;;;;5137004;27;20199;-67
2021/07/07 04:54:26;;;;;;;4.22;2.40;;;;;;;;;;5136840;27;20195;-68
2021/07/07 04:56:54;;;;;;;5.22;2.50;;;;;;;;;;5136624;27;20306;-68
2021/07/07 04:59:22;;;;;;;3.25;2.03;;;;;;;;;;5136653;27;20202;-68
2021/07/07 05:01:50;;;;;;;2.65;2.00;;;;;;;;;;5136487;27;20219;-68
2021/07/07 05:04:19;;;;;;;4.22;3.15;;;;;;;;;;5136682;27;20213;-68
2021/07/07 05:06:48;;;;;;;6.78;2.72;;;;;;;;;;5136945;27;20282;-68
2021/07/07 05:09:16;;;;;;;3.60;2.58;;;;;;;;;;5136933;27;20199;-69
2021/07/07 05:11:45;;;;;;;4.35;2.80;;;;;;;;;;5136732;27;20194;-69
2021/07/07 05:14:14;;;;;;;3.92;2.67;;;;;;;;;;5136773;27;20290;-67
2021/07/07 05:16:42;;;;;;;5.35;2.97;;;;;;;;;;5136282;27;20209;-68
2021/07/07 05:19:11;;;;;;;5.65;2.67;;;;;;;;;;5136462;27;20217;-68
2021/07/07 05:21:39;;;;;;;4.95;2.28;;;;;;;;;;5136724;27;20215;-67
2021/07/07 05:24:08;;;;;;;3.90;2.20;;;;;;;;;;5136695;27;20289;-67
2021/07/07 05:26:37;;;;;;;3.78;2.17;;;;;;;;;;5136173;27;20207;-68
2021/07/07 05:29:05;;;;;;;5.35;2.22;;;;;;;;;;5136627;27;20285;-68
2021/07/07 05:31:33;;;;;;;2.50;2.10;;;;;;;;;;5136340;27;20187;-68
2021/07/07 05:34:02;;;;;;;3.40;1.95;;;;;;;;;;5135041;27;20357;-67
2021/07/07 05:36:30;;;;;;;4.20;2.50;;;;;;;;;;5136473;27;20608;-68
2021/07/07 05:38:58;;;;;;;3.47;2.10;;;;;;;;;;5136402;27;20203;-68
2021/07/07 05:41:28;;;;;;;3.47;2.35;;;;;;;;;;5135739;27;20229;-69
2021/07/07 05:43:56;;;;;;;6.32;2.17;;;;;;;;;;5135997;27;20281;-69
2021/07/07 05:46:24;;;;;;;4.35;2.58;;;;;;;;;;5136002;27;20297;-69
2021/07/07 05:48:52;;;;;;;4.60;2.10;;;;;;;;;;5135986;27;20213;-69
2021/07/07 05:51:21;;;;;;;4.72;1.70;;;;;;;;;;5135569;27;20318;-69
2021/07/07 05:53:49;;;;;;;2.55;1.80;;;;;;;;;;5135735;27;20297;-69
2021/07/07 05:56:17;;;;;;;2.17;1.98;;;;;;;;;;5136184;27;20678;-68
2021/07/07 05:58:47;;;;;;;3.42;2.20;;;;;;;;;;5136407;27;20641;-68
2021/07/07 06:01:15;;;;;;;2.22;1.55;;;;;;;;;;5137181;27;20205;-68
2021/07/07 06:03:43;;;;;;;4.88;2.05;;;;;;;;;;5135573;27;20314;-69
2021/07/07 06:06:11;;;;;;;3.03;2.00;;;;;;;;;;5135635;27;20642;-67
2021/07/07 06:08:39;;;;;;;4.18;2.22;;;;;;;;;;5135881;27;20198;-67
2021/07/07 06:11:08;;;;;;;5.43;2.40;;;;;;;;;;5135214;27;20198;-68
2021/07/07 06:13:36;;;;;;;4.38;2.20;;;;;;;;;;5135458;27;20286;-68
2021/07/07 06:16:06;;;;;;;3.25;1.85;;;;;;;;;;5135174;27;20714;-68
2021/07/07 06:18:34;;;;;;;3.22;2.10;;;;;;;;;;5135028;27;20195;-68
2021/07/07 06:21:03;;;;;;;3.13;2.05;;;;;;;;;;5135337;27;20202;-68
2021/07/07 06:23:31;;;;;;;2.47;1.70;;;;;;;;;;5135317;27;20214;-68
2021/07/07 06:26:00;;;;;;;6.82;2.30;;;;;;;;;;5134962;27;20201;-69
2021/07/07 06:28:28;;;;;;;2.78;2.00;;;;;;;;;;5135380;27;20198;-69
2021/07/07 06:30:56;;;;;;;2.92;2.17;;;;;;;;;;5135178;27;20209;-68
2021/07/07 06:33:26;;;;;;;2.83;2.25;;;;;;;;;;5134999;27;20229;-68
2021/07/07 06:35:54;;;;;;;3.47;2.30;;;;;;;;;;5134979;27;20690;-68
2021/07/07 06:38:22;;;;;;;4.43;2.30;;;;;;;;;;5135099;27;20203;-69
2021/07/07 06:40:51;;;;;;;4.70;2.15;;;;;;;;;;5134940;27;20226;-67
2021/07/07 06:43:19;;;;;;;5.13;2.50;;;;;;;;;;5134841;27;20211;-67
2021/07/07 06:45:47;;;;;;;3.35;2.25;;;;;;;;;;5134705;27;20297;-67
2021/07/07 06:48:16;;;;;;;3.90;2.55;;;;;;;;;;5134641;27;20282;-68
2021/07/07 06:50:45;;;;;;;3.42;2.50;;;;;;;;;;5134563;27;20223;-68
2021/07/07 06:53:15;;;;;;;5.13;2.72;;;;;;;;;;5135158;27;20285;-68
2021/07/07 06:55:43;;;;;;;3.03;2.30;;;;;;;;;;5134723;27;20643;-69
2021/07/07 06:58:14;;;;;;;3.08;2.40;;;;;;;;;;5134915;27;20230;-68
2021/07/07 07:00:42;;;;;;;4.55;2.42;;;;;;;;;;5134487;27;20625;-69
2021/07/07 07:03:11;;;;;;;6.80;2.80;;;;;;;;;;5134677;27;20313;-68
2021/07/07 07:05:39;;;;;;;4.50;3.00;;;;;;;;;;5134408;27;20590;-69
2021/07/07 07:08:12;;;;;;;3.03;2.65;;;;;;;;;;5134653;27;20226;-68
2021/07/07 07:10:41;;;;;;;4.40;2.72;;;;;;;;;;5134601;27;20179;-68
2021/07/07 07:13:09;;;;;;;2.70;2.50;;;;;;;;;;5134060;27;20289;-67
2021/07/07 07:15:37;;;;;;;3.40;3.10;;;;;;;;;;5133986;27;20642;-67
2021/07/07 07:18:06;;;;;;;3.65;3.00;;;;;;;;;;5134242;27;20206;-68
2021/07/07 07:20:34;;;;;;;3.50;2.78;;;;;;;;;;5134546;27;20290;-67
2021/07/07 07:23:04;;;;;;;5.30;2.90;;;;;;;;;;5134075;27;20693;-67
2021/07/07 07:25:33;;;;;;;3.17;2.90;;;;;;;;;;5134533;27;20552;-68
2021/07/07 07:28:02;;;;;;;2.90;2.45;;;;;;;;;;5133608;27;20986;-69
2021/07/07 07:30:31;;;;;;;5.18;3.30;;;;;;;;;;5133979;27;20293;-68
2021/07/07 07:32:59;;;;;;;3.55;3.22;;;;;;;;;;5133601;27;20563;-69
2021/07/07 07:35:27;;;;;;;3.72;2.97;;;;;;;;;;5134195;27;20289;-68
2021/07/07 07:38:02;;;;;;;4.28;3.10;;;;;;;;;;5134230;27;20281;-68
2021/07/07 07:40:36;;;;;;;3.92;3.03;;;;;;;;;;5134192;27;20178;-68
2021/07/07 07:43:07;;;;;;;3.55;3.13;;;;;;;;;;5133909;27;20202;-68
2021/07/07 07:45:35;;;;;;;4.72;2.92;;;;;;;;;;5133554;27;20282;-68
2021/07/07 07:48:04;;;;;;;2.83;2.60;;;;;;;;;;5133558;27;20209;-68
2021/07/07 07:50:33;;;;;;;2.92;2.63;;;;;;;;;;5133553;27;20226;-68
2021/07/07 07:53:01;;;;;;;4.80;3.38;;;;;;;;;;5133517;27;20194;-67
2021/07/07 07:55:29;;;;;;;3.22;2.92;;;;;;;;;;5133965;27;20277;-68
2021/07/07 07:57:57;;;;;;;4.38;2.92;;;;;;;;;;5133078;27;20641;-70
2021/07/07 08:00:27;;;;;;;5.15;2.75;;;;;;;;;;5133756;27;20247;-67
2021/07/07 08:02:56;;;;;;;2.83;2.60;;;;;;;;;;5133785;27;20221;-68
2021/07/07 08:05:24;;;;;;;4.00;2.42;;;;;;;;;;5133451;27;20748;-70
2021/07/07 08:07:52;;;;;;;4.60;3.58;;;;;;;;;;5133779;27;20212;-70
2021/07/07 08:10:22;;;;;;;5.03;2.55;;;;;;;;;;5133681;27;20199;-70
2021/07/07 08:12:50;;;;;;;4.40;2.30;;;;;;;;;;5133385;28;20198;-68
2021/07/07 08:15:20;;;;;;;3.50;2.70;;;;;;;;;;5133348;28;20194;-69
2021/07/07 08:17:49;;;;;;;4.82;2.78;;;;;;;;;;5133175;28;20199;-68
2021/07/07 08:20:19;;;;;;;3.13;2.80;;;;;;;;;;5134312;28;20203;-67
2021/07/07 08:22:47;;;;;;;3.80;2.72;;;;;;;;;;5136541;28;20199;-67
2021/07/07 08:25:17;;;;;;;3.30;3.00;;;;;;;;;;5136058;28;20652;-67
2021/07/07 08:27:46;;;;;;;3.60;3.30;;;;;;;;;;5135402;28;20651;-68
2021/07/07 08:30:15;;;;;;;3.58;3.28;;;;;;;;;;5135562;28;20293;-67
2021/07/07 08:32:43;;;;;;;4.57;3.63;;;;;;;;;;5135211;28;20233;-70
2021/07/07 08:35:14;;;;;;;5.10;3.47;;;;;;;;;;5135614;28;20203;-68
2021/07/07 08:37:42;;;;;;;2.85;2.45;;;;;;;;;;5135264;28;20289;-68
2021/07/07 08:40:12;;;;;;;3.42;2.70;;;;;;;;;;5136996;28;20228;-67
2021/07/07 08:42:42;;;;;;;3.03;2.70;;;;;;;;;;5136159;28;20203;-68
2021/07/07 08:45:11;;;;;;;4.65;2.80;;;;;;;;;;5136098;28;20241;-67
2021/07/07 08:47:41;;;;;;;3.55;2.40;;;;;;;;;;5136126;28;20201;-68
2021/07/07 08:50:10;;;;;;;3.05;2.30;;;;;;;;;;5135867;28;20330;-69
2021/07/07 08:52:40;;;;;;;3.30;2.38;;;;;;;;;;5136285;28;20201;-68
2021/07/07 08:55:10;;;;;;;2.50;2.30;;;;;;;;;;5136845;28;20709;-68
2021/07/07 08:57:43;;;;;;;2.03;1.70;;;;;;;;;;5135809;28;20234;-67
2021/07/07 09:00:13;;;;;;;1.90;1.70;;;;;;;;;;5136430;28;20187;-68
2021/07/07 09:02:48;;;;;;;2.92;1.60;;;;;;;;;;5135415;28;20214;-69
2021/07/07 09:05:17;;;;;;;2.15;1.70;;;;;;;;;;5135824;28;20218;-69
2021/07/07 09:07:47;;;;;;;2.35;1.80;;;;;;;;;;5134192;27;20210;-68
2021/07/07 09:10:18;;;;;;;2.95;1.40;;;;;;;;;;5137860;27;20194;-68
2021/07/07 09:12:46;;;;;;;1.95;1.27;;;;;;;;;;5141284;27;20545;-68
2021/07/07 09:15:16;;;;;;;1.92;1.30;;;;;;;;;;5158508;27;20221;-68
2021/07/07 09:17:45;;;;;;;2.55;1.25;;;;;;;;;;5158911;27;20198;-68
2021/07/07 09:20:17;;;;;;;1.20;1.10;;;;;;;;;;5147822;27;20282;-69
2021/07/07 09:22:45;;;;;;;1.17;1.08;;;;;;;;;;5137125;27;20270;-68
2021/07/07 09:25:19;;;;;;;2.92;1.30;;;;;;;;;;5136175;27;20702;-68
2021/07/07 09:27:47;;;;;;;2.70;1.42;;;;;;;;;;5138941;27;20209;-68
2021/07/07 09:30:16;;;;;;;1.75;1.55;;;;;;;;;;5135857;27;20202;-69
2021/07/07 09:32:45;;;;;;;3.50;2.17;;;;;;;;;;5135963;27;20201;-67
2021/07/07 09:35:15;;;;;;;2.95;1.88;;;;;;;;;;5136283;27;20697;-68
2021/07/07 09:37:48;;;;;;;3.03;2.33;;;;;;;;;;5136173;27;20577;-68
2021/07/07 09:40:18;;;;;;;2.83;1.92;;;;;;;;;;5157222;27;20182;-67
2021/07/07 09:42:49;;;;;;;6.45;1.80;;;;;;;;;;5155926;27;20281;-69
2021/07/07 09:45:19;;;;;;;1.77;1.50;;;;;;;;;;5115472;28;20213;-68
2021/07/07 09:47:48;;;;;;;2.35;1.55;;;;;;;;;;5115355;28;20675;-69
2021/07/07 09:50:17;;;;;;;2.90;1.65;;;;;;;;;;5105706;28;20228;-69
2021/07/07 09:52:46;;;;;;;2.17;1.63;;;;;;;;;;5094934;28;20295;-67
2021/07/07 09:55:15;;;;;;;2.97;1.63;;;;;;;;;;5094999;28;20191;-65
2021/07/07 09:57:45;;;;;;;3.53;1.92;;;;;;;;;;5094750;28;20666;-67
2021/07/07 10:00:15;;;;;;;2.47;1.80;;;;;;;;;;5094907;28;20279;-66
2021/07/07 10:02:43;;;;;;;3.28;1.75;;;;;;;;;;5095104;28;20196;-66
2021/07/07 10:05:15;;;;;;;2.08;1.63;;;;;;;;;;5094943;28;20293;-66
2021/07/07 10:07:43;;;;;;;2.08;1.50;;;;;;;;;;5094245;28;20214;-67
2021/07/07 10:10:13;;;;;;;2.15;1.73;;;;;;;;;;5094819;28;20595;-66
2021/07/07 10:12:43;;;;;;;1.58;1.38;;;;;;;;;;5094640;28;20293;-68
2021/07/07 10:15:14;;;;;;;2.90;1.92;;;;;;;;;;5094714;28;20527;-66
2021/07/07 10:17:43;;;;;;;2.67;1.50;;;;;;;;;;5094454;28;20271;-66
2021/07/07 10:20:13;;;;;;;1.75;1.48;;;;;;;;;;5114535;28;20217;-66
2021/07/07 10:22:42;;;;;;;2.72;1.50;;;;;;;;;;5114927;28;20195;-67
2021/07/07 10:25:13;;;;;;;2.00;1.45;;;;;;;;;;5116829;28;20610;-66
2021/07/07 10:27:41;;;;;;;1.52;1.42;;;;;;;;;;5116380;28;20293;-65
2021/07/07 10:30:10;;;;;;;1.40;1.30;;;;;;;;;;5115053;28;20199;-65
2021/07/07 10:32:40;;;;;;;2.00;1.40;;;;;;;;;;5114745;28;20202;-65
2021/07/07 10:35:09;;;;;;;2.50;1.40;;;;;;;;;;5134959;27;20202;-65
2021/07/07 10:37:38;;;;;;;2.50;1.67;;;;;;;;;;5134709;27;20654;-66
2021/07/07 10:40:26;;;;;;;1.98;1.52;;;;;;;;;;5134895;27;20199;-66
2021/07/07 10:42:54;;;;;;;4.60;1.88;;;;;;;;;;5134209;27;20570;-66
2021/07/07 10:45:35;;;;;;;1.70;1.50;;;;;;;;;;5114430;28;20277;-67
2021/07/07 10:48:19;;;;;;;2.45;1.75;;;;;;;;;;5114234;28;20199;-66
2021/07/07 10:50:48;;;;;;;3.85;1.50;;;;;;;;;;5127013;27;20223;-66
2021/07/07 10:53:24;;;;;;;3.03;2.05;;;;;;;;;;5134949;27;20204;-66
2021/07/07 10:55:52;;;;;;;3.25;1.95;;;;;;;;;;5137939;27;20276;-66
2021/07/07 10:58:24;;;;;;;1.55;1.45;;;;;;;;;;5155410;27;20200;-66
2021/07/07 11:00:52;;;;;;;2.13;1.90;;;;;;;;;;5155393;27;20198;-67
2021/07/07 11:06:33;;;;;;;1.35;1.25;;;;;;;;;;5155162;27;20294;-65
2021/07/07 11:09:13;;;;;;;2.10;1.55;;;;;;;;;;5155501;27;20189;-67
2021/07/07 11:11:42;;;;;;;1.30;1.20;;;;;;;;;;5155253;27;20214;-66
2021/07/07 11:14:12;;;;;;;1.73;1.10;;;;;;;;;;5155031;27;20676;-66
2021/07/07 11:16:47;;;;;;;1.52;1.30;;;;;;;;;;5154787;27;20653;-65
2021/07/07 11:19:34;;;;;;;1.65;1.40;;;;;;;;;;5154829;27;20594;-67
2021/07/07 11:22:07;;;;;;;1.83;1.10;;;;;;;;;;5155048;27;20183;-66
2021/07/07 11:24:36;;;;;;;2.65;1.30;;;;;;;;;;5155025;27;20204;-65
2021/07/07 11:27:05;;;;;;;2.40;1.33;;;;;;;;;;5154982;27;20197;-66
2021/07/07 11:29:33;;;;;;;1.50;1.10;;;;;;;;;;5154934;27;20200;-65
2021/07/07 11:32:01;;;;;;;1.45;1.00;;;;;;;;;;5154022;27;20205;-66
2021/07/07 11:34:44;;;;;;;1.60;1.20;;;;;;;;;;5154884;27;20305;-65
2021/07/07 11:37:14;;;;;;;4.10;1.30;;;;;;;;;;5154150;27;20211;-67
2021/07/07 11:39:42;;;;;;;1.75;1.20;;;;;;;;;;5154766;27;20208;-67
2021/07/07 11:42:10;;;;;;;2.90;1.50;;;;;;;;;;5154720;27;20251;-66
2021/07/07 11:44:42;;;;;;;3.70;1.60;;;;;;;;;;5138625;27;20209;-66
2021/07/07 11:47:13;;;;;;;1.80;1.30;;;;;;;;;;5134061;27;20678;-66
2021/07/07 11:49:41;;;;;;;2.67;1.67;;;;;;;;;;5133842;27;20229;-65
2021/07/07 11:52:10;;;;;;;1.30;1.20;;;;;;;;;;5131873;27;20199;-65
2021/07/07 11:54:48;;;;;;;1.95;1.38;;;;;;;;;;5136254;27;20217;-66
2021/07/07 11:57:16;;;;;;;1.75;1.33;;;;;;;;;;5154538;27;20200;-66
2021/07/07 11:59:52;;;;;;;1.52;1.42;;;;;;;;;;5154183;27;20668;-66
2021/07/07 12:02:20;;;;;;;2.30;1.42;;;;;;;;;;5154514;27;20181;-66
2021/07/07 12:04:49;;;;;;;1.60;1.50;;;;;;;;;;5153743;27;20596;-66
2021/07/07 12:07:20;;;;;;;2.33;1.20;;;;;;;;;;5154261;27;20197;-65
2021/07/07 12:09:50;;;;;;;2.03;1.33;;;;;;;;;;5154254;27;20187;-65
2021/07/07 12:12:18;;;;;;;1.40;1.30;;;;;;;;;;5153176;27;20198;-65
2021/07/07 12:14:46;;;;;;;1.67;1.40;;;;;;;;;;5154194;27;20204;-67
2021/07/07 12:17:17;;;;;;;2.40;1.50;;;;;;;;;;5154171;27;20206;-67
2021/07/07 12:19:45;;;;;;;1.75;1.33;;;;;;;;;;5154147;27;20182;-66
2021/07/07 12:22:15;;;;;;;2.05;1.58;;;;;;;;;;5154277;27;20198;-66
2021/07/07 12:24:44;;;;;;;3.17;1.50;;;;;;;;;;5153904;27;20236;-66
2021/07/07 12:27:14;;;;;;;1.52;1.40;;;;;;;;;;5153948;27;20407;-67
2021/07/07 12:29:43;;;;;;;1.40;1.10;;;;;;;;;;5146755;27;20218;-65
2021/07/07 12:32:13;;;;;;;2.22;1.50;;;;;;;;;;5133356;28;20259;-65
2021/07/07 12:34:43;;;;;;;1.30;1.20;;;;;;;;;;5132929;28;20572;-66
2021/07/07 12:37:12;;;;;;;1.83;1.40;;;;;;;;;;5133647;28;20289;-66
2021/07/07 12:39:41;;;;;;;2.28;1.50;;;;;;;;;;5133309;28;20412;-66
2021/07/07 12:42:12;;;;;;;3.38;1.27;;;;;;;;;;5133180;27;20198;-66
2021/07/07 12:44:43;;;;;;;1.45;1.27;;;;;;;;;;5140081;27;20602;-66
2021/07/07 12:47:16;;;;;;;1.30;1.10;;;;;;;;;;5158244;27;20292;-66
2021/07/07 12:49:46;;;;;;;2.50;1.30;;;;;;;;;;5157336;27;20229;-66
2021/07/07 12:52:15;;;;;;;3.08;1.40;;;;;;;;;;5157894;27;20220;-67
2021/07/07 12:54:44;;;;;;;2.25;1.38;;;;;;;;;;5158078;27;20304;-66
2021/07/07 12:57:12;;;;;;;1.25;1.15;;;;;;;;;;5157503;27;20752;-67
2021/07/07 12:59:54;;;;;;;1.70;1.50;;;;;;;;;;5157657;27;20240;-66
2021/07/07 13:02:22;;;;;;;1.77;1.67;;;;;;;;;;5157996;27;20337;-66
2021/07/07 13:04:51;;;;;;;2.35;1.55;;;;;;;;;;5157501;27;20292;-66
2021/07/07 13:07:23;;;;;;;1.73;1.27;;;;;;;;;;5157656;27;20210;-66
2021/07/07 13:09:56;;;;;;;2.08;1.60;;;;;;;;;;5157592;27;20273;-66
2021/07/07 13:12:28;;;;;;;2.47;1.50;;;;;;;;;;5156957;27;20182;-67
2021/07/07 13:14:58;;;;;;;1.33;1.23;;;;;;;;;;5157608;27;20178;-67
2021/07/07 13:17:27;;;;;;;2.35;1.50;;;;;;;;;;5157351;27;20231;-64
2021/07/07 13:19:59;;;;;;;1.88;1.48;;;;;;;;;;5145688;27;20194;-66
2021/07/07 13:22:27;;;;;;;1.95;1.40;;;;;;;;;;5136893;27;20651;-65
2021/07/07 13:24:56;;;;;;;1.70;1.60;;;;;;;;;;5135721;27;20623;-64
2021/07/07 13:27:24;;;;;;;2.60;1.60;;;;;;;;;;5135622;27;20225;-65
2021/07/07 13:29:57;;;;;;;3.83;1.60;;;;;;;;;;5135950;27;20257;-66
2021/07/07 13:32:27;;;;;;;3.17;1.50;;;;;;;;;;5136275;27;20198;-66
2021/07/07 13:34:57;;;;;;;2.97;1.60;;;;;;;;;;5136068;27;20183;-66
2021/07/07 13:37:26;;;;;;;3.00;1.30;;;;;;;;;;5136179;27;20643;-66
2021/07/07 13:39:56;;;;;;;1.90;1.35;;;;;;;;;;5135495;27;20199;-66
2021/07/07 13:42:25;;;;;;;1.40;1.30;;;;;;;;;;5136129;27;20232;-66
2021/07/07 13:44:54;;;;;;;2.20;1.60;;;;;;;;;;5135717;27;20209;-66
2021/07/07 13:47:27;;;;;;;2.75;1.35;;;;;;;;;;5135910;27;20207;-65
2021/07/07 13:49:56;;;;;;;2.30;1.48;;;;;;;;;;5135248;27;20222;-67
2021/07/07 13:52:24;;;;;;;4.57;1.58;;;;;;;;;;5135916;27;20234;-66
2021/07/07 13:54:54;;;;;;;1.58;1.23;;;;;;;;;;5134957;27;20213;-66
2021/07/07 13:57:22;;;;;;;2.42;1.42;;;;;;;;;;5135996;27;20194;-66
2021/07/07 13:59:50;;;;;;;2.58;1.35;;;;;;;;;;5135942;27;20205;-66
2021/07/07 14:02:18;;;;;;;2.05;1.10;;;;;;;;;;5135952;27;20217;-66
2021/07/07 14:04:48;;;;;;;1.60;1.20;;;;;;;;;;5135360;27;20202;-65
2021/07/07 14:07:17;;;;;;;1.95;1.30;;;;;;;;;;5135408;27;20218;-67
2021/07/07 14:09:45;;;;;;;2.92;1.48;;;;;;;;;;5135310;27;20209;-66
2021/07/07 14:12:13;;;;;;;3.30;1.40;;;;;;;;;;5135167;27;20309;-66
2021/07/07 14:14:42;;;;;;;3.03;1.67;;;;;;;;;;5135163;27;20207;-66
2021/07/07 14:17:10;;;;;;;2.63;1.40;;;;;;;;;;5135259;27;20833;-65
2021/07/07 14:19:38;;;;;;;2.45;1.60;;;;;;;;;;5135091;27;20248;-66
2021/07/07 14:22:08;;;;;;;1.83;1.67;;;;;;;;;;5135382;27;20255;-67
2021/07/07 14:24:36;;;;;;;1.45;1.35;;;;;;;;;;5135422;27;20202;-65
2021/07/07 14:27:05;;;;;;;2.65;1.60;;;;;;;;;;5134791;27;20314;-66
2021/07/07 14:29:33;;;;;;;2.90;1.40;;;;;;;;;;5135215;27;20205;-66
2021/07/07 14:32:02;;;;;;;2.72;1.30;;;;;;;;;;5134946;27;20327;-67
2021/07/07 14:34:30;;;;;;;2.33;1.45;;;;;;;;;;5134557;27;20669;-66
2021/07/07 14:36:58;;;;;;;2.92;1.63;;;;;;;;;;5134911;27;20202;-66
2021/07/07 14:39:28;;;;;;;1.63;1.52;;;;;;;;;;5134875;27;20294;-66
2021/07/07 14:41:56;;;;;;;2.35;1.67;;;;;;;;;;5135016;27;20311;-66
2021/07/07 14:44:24;;;;;;;1.70;1.60;;;;;;;;;;5131098;27;20230;-65
2021/07/07 14:46:54;;;;;;;3.35;1.80;;;;;;;;;;5134759;27;20261;-66
2021/07/07 14:49:22;;;;;;;2.80;1.80;;;;;;;;;;5134020;27;20545;-65
2021/07/07 14:51:51;;;;;;;2.17;1.60;;;;;;;;;;5134813;27;20215;-65
2021/07/07 14:54:19;;;;;;;2.50;1.48;;;;;;;;;;5134910;27;20202;-66
2021/07/07 14:56:48;;;;;;;1.85;1.70;;;;;;;;;;5135025;27;20187;-66
2021/07/07 14:59:17;;;;;;;2.15;1.80;;;;;;;;;;5136085;27;20241;-66